createdAt,value
2018-10-17T00:00:14.072Z,76.81
2018-10-17T00:02:49.873Z,75.08
2018-10-17T00:05:25.701Z,73.42
2018-10-17T00:08:01.808Z,72.38
2018-10-17T00:10:37.593Z,70.33
2018-10-17T00:13:13.476Z,70.56
2018-10-17T00:15:49.361Z,71.04
2018-10-17T00:18:25.646Z,69.95
2018-10-17T00:21:01.520Z,69.37
2018-10-17T00:23:37.721Z,68.59
2018-10-17T00:26:13.581Z,70.38
2018-10-17T00:28:49.493Z,71.98
2018-10-17T00:31:25.407Z,70.29
2018-10-17T00:34:01.309Z,71.50
2018-10-17T00:36:37.189Z,73.37
2018-10-17T00:39:13.299Z,76.06
2018-10-17T00:41:49.069Z,76.97
2018-10-17T00:44:25.014Z,76.40
2018-10-17T00:47:00.837Z,76.40
2018-10-17T00:49:37.004Z,77.05
2018-10-17T00:52:12.765Z,77.05
2018-10-17T00:54:48.991Z,77.17
2018-10-17T00:57:28.358Z,77.64
2018-10-17T01:00:04.270Z,75.81
2018-10-17T01:02:40.092Z,75.00
2018-10-17T01:05:16.112Z,74.19
2018-10-17T01:07:51.988Z,72.45
2018-10-17T01:10:28.080Z,70.63
2018-10-17T01:13:03.838Z,69.32
2018-10-17T01:15:39.854Z,70.07
2018-10-17T01:18:15.563Z,72.30
2018-10-17T01:20:51.489Z,72.10
2018-10-17T01:23:32.481Z,73.65
2018-10-17T01:26:08.447Z,74.23
2018-10-17T01:28:44.321Z,74.29
2018-10-17T01:31:20.130Z,76.47
2018-10-17T01:33:55.846Z,75.90
2018-10-17T01:36:31.705Z,75.88
2018-10-17T01:39:09.862Z,78.31
2018-10-17T01:41:45.703Z,75.07
2018-10-17T01:44:21.474Z,74.06
2018-10-17T01:46:57.428Z,73.49
2018-10-17T01:49:33.163Z,74.42
2018-10-17T01:52:11.517Z,75.84
2018-10-17T01:54:47.348Z,76.90
2018-10-17T01:57:24.657Z,77.21
2018-10-17T02:00:00.875Z,77.00
2018-10-17T02:02:36.888Z,75.21
2018-10-17T02:05:12.849Z,74.09
2018-10-17T02:07:49.049Z,74.93
2018-10-17T02:10:24.772Z,74.12
2018-10-17T02:13:01.817Z,72.48
2018-10-17T02:15:37.688Z,73.57
2018-10-17T02:18:13.524Z,73.98
2018-10-17T02:20:49.598Z,74.64
2018-10-17T02:23:25.425Z,75.78
2018-10-17T02:26:01.194Z,78.04
2018-10-17T02:28:37.201Z,78.27
2018-10-17T02:31:13.068Z,78.25
2018-10-17T02:33:49.157Z,77.02
2018-10-17T02:36:24.970Z,77.52
2018-10-17T02:39:00.804Z,77.04
2018-10-17T02:41:36.688Z,77.47
2018-10-17T02:44:12.498Z,78.05
2018-10-17T02:46:48.285Z,75.54
2018-10-17T02:49:24.247Z,75.48
2018-10-17T02:52:00.083Z,78.05
2018-10-17T02:54:36.516Z,76.94
2018-10-17T02:57:12.243Z,79.46
2018-10-17T02:59:48.290Z,78.92
2018-10-17T03:02:24.469Z,78.87
2018-10-17T03:05:00.405Z,78.83
2018-10-17T03:07:36.282Z,76.26
2018-10-17T03:10:12.238Z,76.92
2018-10-17T03:12:48.188Z,75.85
2018-10-17T03:15:24.416Z,76.83
2018-10-17T03:18:00.096Z,77.27
2018-10-17T03:20:35.898Z,78.86
2018-10-17T03:23:11.725Z,76.76
2018-10-17T03:25:47.824Z,75.73
2018-10-17T03:28:23.693Z,74.92
2018-10-17T03:31:00.073Z,76.85
2018-10-17T03:33:36.107Z,78.39
2018-10-17T03:36:13.018Z,76.42
2018-10-17T03:38:48.759Z,76.82
2018-10-17T03:41:24.673Z,78.29
2018-10-17T03:44:00.424Z,80.58
2018-10-17T03:46:36.185Z,82.03
2018-10-17T03:49:11.941Z,82.86
2018-10-17T03:51:48.068Z,82.32
2018-10-17T03:54:23.917Z,82.73
2018-10-17T03:56:59.771Z,83.11
2018-10-17T03:59:35.806Z,83.69
2018-10-17T04:02:11.596Z,81.07
2018-10-17T04:04:47.620Z,80.30
2018-10-17T04:07:24.013Z,81.35
2018-10-17T04:10:00.417Z,80.87
2018-10-17T04:12:36.344Z,81.77
2018-10-17T04:15:12.239Z,82.37
2018-10-17T04:17:48.058Z,82.81
2018-10-17T04:20:23.866Z,81.95
2018-10-17T04:22:59.822Z,82.84
2018-10-17T04:25:35.690Z,82.91
2018-10-17T04:28:11.582Z,82.10
2018-10-17T04:30:47.473Z,82.43
2018-10-17T04:33:23.379Z,81.70
2018-10-17T04:35:59.123Z,80.41
2018-10-17T04:38:36.556Z,79.57
2018-10-17T04:41:20.285Z,77.39
2018-10-17T04:43:56.240Z,76.45
2018-10-17T04:46:32.076Z,77.65
2018-10-17T04:49:08.612Z,76.95
2018-10-17T04:51:44.763Z,79.02
2018-10-17T04:54:21.035Z,80.48
2018-10-17T04:56:57.113Z,83.02
2018-10-17T04:59:32.962Z,81.46
2018-10-17T05:02:08.828Z,81.05
2018-10-17T05:04:45.090Z,81.30
2018-10-17T05:07:21.791Z,80.86
2018-10-17T05:16:57.325Z,78.85
2018-10-17T05:19:33.395Z,79.71
2018-10-17T05:22:09.723Z,80.72
2018-10-17T05:24:44.643Z,81.46
2018-10-17T05:27:19.982Z,79.27
2018-10-17T05:29:54.892Z,77.35
2018-10-17T05:32:29.971Z,74.91
2018-10-17T05:35:05.335Z,74.87
2018-10-17T05:37:40.289Z,73.02
2018-10-17T05:40:15.160Z,72.07
2018-10-17T05:42:49.837Z,71.35
2018-10-17T05:45:24.565Z,70.52
2018-10-17T05:47:59.280Z,71.46
2018-10-17T05:50:34.508Z,71.91
2018-10-17T05:53:10.433Z,71.38
2018-10-17T05:55:45.621Z,71.46
2018-10-17T05:58:20.590Z,70.84
2018-10-17T06:00:55.582Z,71.16
2018-10-17T06:03:30.784Z,71.01
2018-10-17T06:06:05.764Z,72.15
2018-10-17T06:08:40.880Z,73.18
2018-10-17T06:11:15.958Z,73.15
2018-10-17T06:13:50.776Z,71.81
2018-10-17T06:16:25.641Z,71.54
2018-10-17T06:19:00.690Z,70.10
2018-10-17T06:21:35.897Z,71.02
2018-10-17T06:24:10.721Z,70.35
2018-10-17T06:26:45.681Z,69.27
2018-10-17T06:29:20.416Z,66.49
2018-10-17T06:31:55.024Z,65.13
2018-10-17T06:34:29.790Z,64.24
2018-10-17T06:37:05.264Z,63.61
2018-10-17T06:39:40.485Z,62.60
2018-10-17T06:42:15.396Z,62.49
2018-10-17T06:44:50.175Z,62.56
2018-10-17T06:47:24.924Z,61.94
2018-10-17T06:49:59.722Z,60.28
2018-10-17T06:52:34.586Z,61.41
2018-10-17T06:55:09.720Z,58.72
2018-10-17T06:57:44.876Z,58.75
2018-10-17T07:00:19.652Z,57.16
2018-10-17T07:02:55.643Z,56.80
2018-10-17T07:05:31.582Z,55.70
2018-10-17T07:08:07.439Z,55.88
2018-10-17T07:10:43.389Z,55.85
2018-10-17T07:13:22.063Z,55.20
2018-10-17T07:15:58.226Z,54.25
2018-10-17T07:18:34.141Z,54.52
2018-10-17T07:21:10.043Z,53.92
2018-10-17T07:23:45.894Z,54.11
2018-10-17T07:26:21.763Z,53.36
2018-10-17T07:28:57.579Z,53.21
2018-10-17T07:31:33.567Z,52.27
2018-10-17T07:34:09.343Z,51.95
2018-10-17T07:36:45.294Z,51.59
2018-10-17T07:39:21.356Z,50.11
2018-10-17T07:41:57.333Z,50.36
2018-10-17T07:44:33.329Z,50.03
2018-10-17T07:47:09.291Z,49.42
2018-10-17T07:49:45.175Z,49.39
2018-10-17T07:52:21.149Z,50.03
2018-10-17T07:54:56.868Z,49.33
2018-10-17T07:57:32.797Z,48.92
2018-10-17T08:00:11.669Z,48.53
2018-10-17T08:02:47.793Z,47.55
2018-10-17T08:05:23.783Z,47.49
2018-10-17T08:07:59.754Z,46.49
2018-10-17T08:10:35.609Z,46.72
2018-10-17T08:13:12.009Z,45.61
2018-10-17T08:15:47.725Z,45.21
2018-10-17T08:18:23.685Z,45.04
2018-10-17T08:20:59.604Z,44.86
2018-10-17T08:23:35.410Z,45.10
2018-10-17T08:26:11.169Z,44.73
2018-10-17T08:28:47.391Z,43.87
2018-10-17T08:31:23.116Z,43.39
2018-10-17T08:33:58.955Z,44.21
2018-10-17T08:36:35.006Z,43.41
2018-10-17T08:39:11.710Z,42.55
2018-10-17T08:41:47.607Z,42.50
2018-10-17T08:44:23.531Z,41.71
2018-10-17T08:46:59.319Z,40.99
2018-10-17T08:49:35.109Z,40.71
2018-10-17T08:52:11.211Z,40.34
2018-10-17T08:54:47.024Z,40.10
2018-10-17T08:57:22.880Z,39.20
2018-10-17T08:59:58.920Z,38.65
2018-10-17T09:02:34.721Z,38.89
2018-10-17T09:05:10.667Z,38.62
2018-10-17T09:07:46.539Z,38.26
2018-10-17T09:10:22.552Z,38.20
2018-10-17T09:12:58.455Z,37.76
2018-10-17T09:15:38.380Z,37.34
2018-10-17T09:18:11.189Z,37.57
2018-10-17T09:20:47.314Z,36.53
2018-10-17T09:23:23.082Z,36.67
2018-10-17T09:25:58.908Z,35.83
2018-10-17T09:28:34.780Z,36.16
2018-10-17T09:31:10.780Z,35.66
2018-10-17T09:33:46.530Z,35.33
2018-10-17T09:36:25.974Z,35.37
2018-10-17T09:39:01.772Z,35.63
2018-10-17T09:41:37.597Z,35.59
2018-10-17T09:44:13.305Z,35.33
2018-10-17T09:46:49.191Z,33.74
2018-10-17T09:49:25.137Z,33.31
2018-10-17T09:52:01.103Z,33.20
2018-10-17T09:54:37.334Z,33.33
2018-10-17T09:57:13.165Z,33.64
2018-10-17T09:59:49.067Z,32.63
2018-10-17T10:02:25.233Z,32.46
2018-10-17T10:05:01.142Z,32.49
2018-10-17T10:07:36.930Z,31.85
2018-10-17T10:10:12.833Z,29.92
2018-10-17T10:12:48.996Z,30.06
2018-10-17T10:15:24.815Z,30.52
2018-10-17T10:18:01.254Z,29.07
2018-10-17T10:20:37.205Z,29.06
2018-10-17T10:23:13.229Z,29.41
2018-10-17T10:25:49.250Z,29.67
2018-10-17T10:28:25.218Z,29.07
2018-10-17T10:32:25.342Z,28.68
2018-10-17T10:35:01.371Z,28.51
2018-10-17T10:37:37.349Z,27.71
2018-10-17T10:40:13.324Z,27.26
2018-10-17T10:42:49.281Z,26.80
2018-10-17T10:45:25.273Z,26.83
2018-10-17T10:48:01.519Z,27.19
2018-10-17T10:50:37.787Z,26.40
2018-10-17T10:53:13.649Z,26.40
2018-10-17T10:55:49.657Z,25.86
2018-10-17T10:58:25.613Z,25.65
2018-10-17T11:01:01.705Z,25.22
2018-10-17T11:03:37.639Z,25.13
2018-10-17T11:06:13.536Z,25.30
2018-10-17T11:08:49.496Z,25.21
2018-10-17T11:11:25.400Z,25.03
2018-10-17T11:14:01.335Z,24.95
2018-10-17T11:16:37.423Z,25.45
2018-10-17T11:19:13.661Z,25.20
2018-10-17T11:21:49.849Z,24.58
2018-10-17T11:24:25.933Z,25.13
2018-10-17T11:27:01.972Z,25.53
2018-10-17T11:29:37.936Z,24.62
2018-10-17T11:32:13.836Z,24.79
2018-10-17T11:34:49.563Z,24.02
2018-10-17T11:37:25.526Z,24.27
2018-10-17T11:40:01.504Z,23.97
2018-10-17T11:42:37.425Z,23.68
2018-10-17T11:45:13.389Z,23.98
2018-10-17T11:47:49.401Z,23.55
2018-10-17T11:50:20.354Z,23.62
2018-10-17T11:52:51.245Z,22.68
2018-10-17T11:55:22.061Z,22.79
2018-10-17T11:57:52.946Z,22.55
2018-10-17T12:00:23.828Z,23.08
2018-10-17T12:02:55.698Z,23.06
2018-10-17T12:05:27.093Z,24.29
2018-10-17T12:07:57.942Z,24.33
2018-10-17T12:10:28.802Z,24.92
2018-10-17T12:12:59.737Z,25.61
2018-10-17T12:15:30.600Z,23.90
2018-10-17T12:18:01.556Z,23.58
2018-10-17T12:20:32.511Z,23.95
2018-10-17T12:23:03.907Z,24.49
2018-10-17T12:25:35.032Z,25.46
2018-10-17T12:28:06.599Z,26.29
2018-10-17T12:30:38.563Z,25.65
2018-10-17T12:33:12.129Z,26.00
2018-10-17T12:35:43.193Z,25.65
2018-10-17T12:38:14.576Z,25.86
2018-10-17T12:40:45.593Z,24.90
2018-10-17T12:43:16.629Z,24.19
2018-10-17T12:45:47.621Z,24.27
2018-10-17T12:48:18.718Z,23.90
2018-10-17T12:50:49.582Z,23.71
2018-10-17T12:53:20.696Z,23.70
2018-10-17T12:55:51.766Z,22.89
2018-10-17T12:58:22.882Z,23.06
2018-10-17T13:00:53.939Z,22.37
2018-10-17T13:03:25.202Z,21.31
2018-10-17T13:05:56.059Z,21.65
2018-10-17T13:08:27.262Z,21.72
2018-10-17T13:10:58.163Z,20.80
2018-10-17T13:13:29.269Z,21.02
2018-10-17T13:16:00.184Z,19.65
2018-10-17T13:18:31.081Z,19.42
2018-10-17T13:21:02.114Z,18.52
2018-10-17T13:23:33.095Z,18.45
2018-10-17T13:26:03.987Z,18.51
2018-10-17T13:28:34.890Z,18.13
2018-10-17T13:31:05.922Z,17.93
2018-10-17T13:33:37.064Z,19.69
2018-10-17T13:36:07.929Z,21.64
2018-10-17T13:38:38.899Z,21.02
2018-10-17T13:41:09.812Z,21.70
2018-10-17T13:43:40.925Z,21.51
2018-10-17T13:46:12.165Z,22.73
2018-10-17T13:48:43.082Z,24.14
2018-10-17T13:51:14.038Z,24.88
2018-10-17T13:53:45.055Z,24.59
2018-10-17T13:56:15.909Z,25.27
2018-10-17T13:58:46.830Z,25.52
2018-10-17T14:01:17.807Z,25.96
2018-10-17T14:03:48.881Z,25.78
2018-10-17T14:06:19.798Z,25.92
2018-10-17T14:08:50.941Z,26.59
2018-10-17T14:11:21.889Z,26.94
2018-10-17T14:13:52.789Z,26.59
2018-10-17T14:16:23.679Z,26.94
2018-10-17T14:18:54.591Z,27.35
2018-10-17T14:21:25.633Z,27.11
2018-10-17T14:23:56.615Z,28.32
2018-10-17T14:26:27.499Z,27.78
2018-10-17T14:28:58.407Z,28.41
2018-10-17T14:31:29.277Z,27.30
2018-10-17T14:34:00.202Z,25.78
2018-10-17T14:36:31.055Z,25.36
2018-10-17T14:39:02.100Z,25.86
2018-10-17T14:41:33.148Z,25.52
2018-10-17T14:44:04.103Z,26.24
2018-10-17T14:46:34.951Z,27.53
2018-10-17T14:49:06.659Z,28.51
2018-10-17T14:51:37.517Z,27.92
2018-10-17T14:54:08.932Z,28.95
2018-10-17T14:56:40.096Z,31.09
2018-10-17T14:59:11.059Z,29.97
2018-10-17T15:01:42.116Z,30.37
2018-10-17T15:04:14.004Z,30.61
2018-10-17T15:06:44.889Z,32.38
2018-10-17T15:09:15.851Z,31.66
2018-10-17T15:11:47.043Z,31.80
2018-10-17T15:14:18.145Z,32.03
2018-10-17T15:16:49.056Z,34.06
2018-10-17T15:19:21.384Z,32.80
2018-10-17T15:22:03.863Z,33.22
2018-10-17T15:24:35.030Z,34.13
2018-10-17T15:27:06.072Z,33.42
2018-10-17T15:29:37.921Z,33.65
2018-10-17T15:32:08.757Z,33.97
2018-10-17T15:34:45.030Z,33.90
2018-10-17T15:37:15.792Z,33.91
2018-10-17T15:39:46.673Z,35.99
2018-10-17T15:42:17.565Z,39.44
2018-10-17T15:44:48.557Z,36.55
2018-10-17T15:47:19.381Z,35.09
2018-10-17T15:49:50.263Z,38.66
2018-10-17T15:52:21.114Z,37.77
2018-10-17T15:54:52.034Z,37.05
2018-10-17T15:57:24.247Z,37.74
2018-10-17T15:59:55.191Z,40.21
2018-10-17T16:02:26.105Z,39.63
2018-10-17T16:04:57.275Z,38.89
2018-10-17T16:07:28.127Z,40.19
2018-10-17T16:09:59.139Z,40.38
2018-10-17T16:12:30.056Z,41.39
2018-10-17T16:15:01.368Z,41.12
2018-10-17T16:17:32.245Z,40.90
2018-10-17T16:20:03.232Z,40.67
2018-10-17T16:22:34.598Z,41.36
2018-10-17T16:25:06.473Z,41.49
2018-10-17T16:27:38.353Z,42.42
2018-10-17T16:30:11.182Z,42.53
2018-10-17T16:32:42.193Z,43.61
2018-10-17T16:35:13.135Z,43.82
2018-10-17T16:37:43.997Z,43.62
2018-10-17T16:40:14.945Z,45.75
2018-10-17T16:42:45.782Z,44.94
2018-10-17T16:45:16.695Z,46.39
2018-10-17T16:47:47.606Z,45.72
2018-10-17T16:50:18.566Z,46.41
2018-10-17T16:52:49.626Z,46.36
2018-10-17T16:55:20.598Z,47.34
2018-10-17T16:57:51.487Z,47.32
2018-10-17T17:00:22.362Z,47.14
2018-10-17T17:02:53.257Z,46.77
2018-10-17T17:05:24.130Z,49.31
2018-10-17T17:07:54.960Z,49.53
2018-10-17T17:10:25.920Z,50.05
2018-10-17T17:12:56.895Z,49.41
2018-10-17T17:15:27.817Z,49.11
2018-10-17T17:17:58.657Z,50.50
2018-10-17T17:20:29.557Z,49.96
2018-10-17T17:23:01.555Z,49.17
2018-10-17T17:25:32.496Z,48.82
2018-10-17T17:28:03.477Z,49.25
2018-10-17T17:30:34.346Z,50.20
2018-10-17T17:33:05.307Z,49.42
2018-10-17T17:35:36.358Z,49.93
2018-10-17T17:38:07.208Z,50.40
2018-10-17T17:40:38.227Z,51.03
2018-10-17T17:43:09.287Z,53.08
2018-10-17T17:45:40.176Z,52.58
2018-10-17T17:48:11.029Z,51.29
2018-10-17T17:50:41.958Z,52.46
2018-10-17T17:53:12.779Z,52.59
2018-10-17T17:55:46.468Z,55.03
2018-10-17T17:58:17.352Z,53.49
2018-10-17T18:00:49.401Z,53.13
2018-10-17T18:03:20.258Z,54.56
2018-10-17T18:05:52.504Z,53.15
2018-10-17T18:08:23.384Z,54.07
2018-10-17T18:10:54.338Z,53.40
2018-10-17T18:13:25.881Z,53.04
2018-10-17T18:15:56.823Z,54.33
2018-10-17T18:18:27.821Z,53.66
2018-10-17T18:20:58.702Z,53.43
2018-10-17T18:23:31.117Z,54.04
2018-10-17T18:26:02.286Z,54.72
2018-10-17T18:28:33.256Z,54.72
2018-10-17T18:31:04.541Z,55.91
2018-10-17T18:33:35.373Z,55.57
2018-10-17T18:36:06.612Z,55.16
2018-10-17T18:38:38.129Z,55.67
2018-10-17T18:41:09.311Z,55.22
2018-10-17T18:43:40.181Z,56.11
2018-10-17T18:46:11.060Z,56.55
2018-10-17T18:48:41.914Z,56.69
2018-10-17T18:51:12.907Z,55.84
2018-10-17T18:53:43.901Z,56.19
2018-10-17T18:56:14.955Z,58.10
2018-10-17T18:58:45.944Z,57.38
2018-10-17T19:01:16.864Z,57.47
2018-10-17T19:03:47.946Z,58.74
2018-10-17T19:06:18.847Z,59.20
2018-10-17T19:08:49.696Z,59.18
2018-10-17T19:11:20.611Z,59.42
2018-10-17T19:13:51.452Z,59.70
2018-10-17T19:16:22.399Z,60.21
2018-10-17T19:18:53.265Z,59.01
2018-10-17T19:21:24.168Z,59.57
2018-10-17T19:23:55.140Z,58.40
2018-10-17T19:26:26.137Z,59.45
2018-10-17T19:28:56.983Z,59.01
2018-10-17T19:31:40.066Z,58.68
2018-10-17T19:34:11.283Z,58.79
2018-10-17T19:36:42.184Z,60.33
2018-10-17T19:39:13.673Z,59.90
2018-10-17T19:41:44.827Z,60.29
2018-10-17T19:44:16.527Z,60.97
2018-10-17T19:46:47.543Z,61.20
2018-10-17T19:49:18.337Z,61.19
2018-10-17T19:51:49.312Z,61.34
2018-10-17T19:54:21.495Z,61.87
2018-10-17T19:56:52.533Z,63.02
2018-10-17T19:59:28.753Z,61.89
2018-10-17T20:02:07.508Z,61.41
2018-10-17T20:04:43.777Z,61.57
2018-10-17T20:07:19.821Z,62.60
2018-10-17T20:09:56.314Z,63.64
2018-10-17T20:12:32.427Z,62.29
2018-10-17T20:15:09.612Z,62.39
2018-10-17T20:17:45.529Z,62.60
2018-10-17T20:20:21.717Z,61.84
2018-10-17T20:22:57.697Z,61.39
2018-10-17T20:25:33.993Z,61.81
2018-10-17T20:28:10.768Z,61.26
2018-10-17T20:32:11.010Z,61.80
2018-10-17T20:34:46.948Z,63.23
2018-10-17T20:37:23.018Z,63.32
2018-10-17T20:39:59.377Z,63.24
2018-10-17T20:42:36.933Z,65.52
2018-10-17T20:45:14.400Z,66.04
2018-10-17T20:47:51.499Z,65.99
2018-10-17T20:50:34.640Z,66.02
2018-10-17T20:53:16.236Z,65.75
2018-10-17T20:55:53.101Z,65.87
2018-10-17T20:58:29.737Z,65.97
2018-10-17T21:01:07.131Z,65.14
2018-10-17T21:03:45.573Z,65.28
2018-10-17T21:06:22.633Z,65.38
2018-10-17T21:08:59.931Z,62.01
2018-10-17T21:11:39.203Z,62.53
2018-10-17T21:14:18.277Z,61.71
2018-10-17T21:16:58.964Z,62.07
2018-10-17T21:19:35.696Z,61.89
2018-10-17T21:22:22.121Z,61.97
2018-10-17T21:25:01.593Z,61.89
2018-10-17T21:27:38.752Z,61.61
2018-10-17T21:30:14.845Z,62.42
2018-10-17T21:32:50.775Z,62.51
2018-10-17T21:35:26.713Z,61.82
2018-10-17T21:38:02.691Z,64.12
2018-10-17T21:40:38.664Z,65.17
2018-10-17T21:43:14.655Z,66.10
2018-10-17T21:45:51.570Z,66.63
2018-10-17T21:48:27.503Z,66.78
2018-10-17T21:51:03.278Z,66.66
2018-10-17T21:53:39.229Z,66.52
2018-10-17T21:56:15.044Z,65.97
2018-10-17T21:58:51.100Z,65.56
2018-10-17T22:01:26.929Z,64.65
2018-10-17T22:04:04.076Z,64.55
2018-10-17T22:06:40.084Z,63.48
2018-10-17T22:09:16.046Z,63.26
2018-10-17T22:11:51.983Z,62.54
2018-10-17T22:14:27.842Z,62.60
2018-10-17T22:17:06.458Z,62.89
2018-10-17T22:19:43.489Z,61.48
2018-10-17T22:22:19.642Z,62.19
2018-10-17T22:24:56.304Z,63.43
2018-10-17T22:27:32.298Z,63.56
2018-10-17T22:30:08.839Z,63.36
2018-10-17T22:32:44.841Z,62.96
2018-10-17T22:35:20.766Z,63.14
2018-10-17T22:37:56.724Z,62.67
2018-10-17T22:40:32.626Z,61.08
2018-10-17T22:43:08.700Z,61.46
2018-10-17T22:45:44.605Z,60.98
2018-10-17T22:48:20.490Z,61.30
2018-10-17T22:50:56.348Z,59.48
2018-10-17T22:53:32.255Z,60.75
2018-10-17T22:56:08.106Z,60.56
2018-10-17T22:58:44.146Z,59.49
2018-10-17T23:01:19.924Z,59.60
2018-10-17T23:03:55.795Z,59.26
2018-10-17T23:06:31.662Z,60.14
2018-10-17T23:09:11.241Z,60.80
2018-10-17T23:11:47.096Z,59.77
2018-10-17T23:14:25.566Z,60.57
2018-10-17T23:17:01.415Z,59.65
2018-10-17T23:19:37.225Z,60.60
2018-10-17T23:22:13.169Z,58.17
2018-10-17T23:24:49.034Z,59.55
2018-10-17T23:27:25.024Z,59.96
2018-10-17T23:30:00.986Z,58.41
2018-10-17T23:32:37.001Z,59.45
2018-10-17T23:35:12.730Z,59.09
2018-10-17T23:37:48.654Z,59.81
2018-10-17T23:40:24.464Z,60.92
2018-10-17T23:43:00.298Z,59.94
2018-10-17T23:45:36.034Z,61.49
2018-10-17T23:48:12.061Z,60.84
2018-10-17T23:50:47.997Z,60.31
2018-10-17T23:53:24.010Z,61.00
2018-10-17T23:55:59.889Z,60.65
2018-10-17T23:58:35.785Z,60.72
